Rutland, North Dakota
Current Conditions -  °F | °C
As of 2:15 PM on Thursday 30 Oct 2014 (Local Time) from KGWR Reporting Station
Overcast Overcast  
Wind Chill: 30°   Ceiling: 1900
Heat Index: 39°   Visibility: 10mi
Dew Point: 34°   Wind: 17mph
Humidity: 81%   Direction: 350°N
Pressure: 30.32"   Gusts: NA
Location:  46.05°N, 97.51°W
Report Text: KGWR 301915Z AUTO 35015KT 10SM OVC019 04/01 A3032 RMK A01 P000
Loading
Personal Weather Stations






























Interactive Weather Map
Tropical Storm Tracking
New forecast layout! Learn more

10-Day Weather Forecast

Advertisements
Track Severe Weather on mobile